createdAt,value
2018-05-13T00:03:53.023Z,5.70
2018-05-13T00:08:48.140Z,5.40
2018-05-13T00:13:43.388Z,4.90
2018-05-13T00:18:37.747Z,5.50
2018-05-13T00:23:32.280Z,5.60
2018-05-13T00:28:26.903Z,5.30
2018-05-13T00:33:21.358Z,4.90
2018-05-13T00:38:15.720Z,4.93
2018-05-13T00:43:10.063Z,5.20
2018-05-13T00:48:04.416Z,4.90
2018-05-13T00:52:58.792Z,5.20
2018-05-13T00:57:54.088Z,4.97
2018-05-13T01:02:48.525Z,4.63
2018-05-13T01:07:43.068Z,5.70
2018-05-13T01:12:37.439Z,5.30
2018-05-13T01:17:32.925Z,5.53
2018-05-13T01:22:27.336Z,5.57
2018-05-13T01:27:21.453Z,5.97
2018-05-13T01:32:16.906Z,5.83
2018-05-13T01:37:11.255Z,5.70
2018-05-13T01:42:05.272Z,5.97
2018-05-13T01:47:00.415Z,6.40
2018-05-13T01:51:55.526Z,5.60
2018-05-13T01:56:50.651Z,5.93
2018-05-13T02:01:45.756Z,5.20
2018-05-13T02:06:41.114Z,5.50
2018-05-13T02:11:35.504Z,6.13
2018-05-13T02:16:30.628Z,5.97
2018-05-13T02:21:24.755Z,5.60
2018-05-13T02:26:19.124Z,5.63
2018-05-13T02:31:14.236Z,5.40
2018-05-13T02:36:09.346Z,6.20
2018-05-13T02:41:04.483Z,5.73
2018-05-13T02:45:59.625Z,4.83
2018-05-13T02:50:54.003Z,3.50
2018-05-13T02:55:49.131Z,3.50
2018-05-13T03:00:43.503Z,3.67
2018-05-13T03:05:37.985Z,3.63
2018-05-13T03:10:32.345Z,3.57
2018-05-13T03:15:26.790Z,2.93
2018-05-13T03:20:21.275Z,3.37
2018-05-13T03:25:15.624Z,3.70
2018-05-13T03:30:10.105Z,3.60
2018-05-13T03:35:04.465Z,4.03
2018-05-13T03:39:58.826Z,3.50
2018-05-13T03:44:53.198Z,3.63
2018-05-13T03:49:47.560Z,3.40
2018-05-13T03:54:42.926Z,4.17
2018-05-13T03:59:37.296Z,3.97
2018-05-13T04:04:31.657Z,4.50
2018-05-13T04:09:43.356Z,4.80
2018-05-13T04:14:55.056Z,4.87
2018-05-13T04:19:49.409Z,5.37
2018-05-13T04:24:44.554Z,4.70
2018-05-13T04:29:38.905Z,4.90
2018-05-13T04:34:33.479Z,5.23
2018-05-13T04:39:27.828Z,4.77
2018-05-13T04:44:22.950Z,4.90
2018-05-13T04:49:18.088Z,4.67
2018-05-13T04:54:13.242Z,5.03
2018-05-13T04:59:07.582Z,4.97
2018-05-13T05:04:02.166Z,5.50
2018-05-13T05:08:56.789Z,5.33
2018-05-13T05:13:52.085Z,5.20
2018-05-13T05:18:46.437Z,6.50
2018-05-13T05:23:40.859Z,6.33
2018-05-13T05:28:36.070Z,6.43
2018-05-13T05:33:31.176Z,6.20
2018-05-13T05:38:25.551Z,6.10
2018-05-13T05:43:19.919Z,6.07
2018-05-13T05:48:14.336Z,6.10
2018-05-13T05:53:08.804Z,6.23
2018-05-13T05:58:03.924Z,5.43
2018-05-13T06:02:59.048Z,6.37
2018-05-13T06:07:54.176Z,5.93
2018-05-13T06:12:48.618Z,6.90
2018-05-13T06:17:43.272Z,5.43
2018-05-13T06:22:38.392Z,6.33
2018-05-13T06:27:33.530Z,6.20
2018-05-13T06:32:27.898Z,5.90
2018-05-13T06:37:23.888Z,7.57
2018-05-13T06:42:18.240Z,7.90
2018-05-13T06:47:12.610Z,8.20
2018-05-13T06:52:06.966Z,10.03
2018-05-13T06:57:02.105Z,10.30
2018-05-13T07:01:57.727Z,10.67
2018-05-13T07:06:52.846Z,12.17
2018-05-13T07:11:47.985Z,11.27
2018-05-13T07:16:43.456Z,12.03
2018-05-13T07:21:37.958Z,14.57
2018-05-13T07:26:32.345Z,15.63
2018-05-13T07:31:27.730Z,17.37
2018-05-13T07:36:22.912Z,19.13
2018-05-13T07:41:17.387Z,20.80
2018-05-13T07:46:12.022Z,21.57
2018-05-13T07:51:06.470Z,23.73
2018-05-13T07:56:01.578Z,24.87
2018-05-13T08:00:56.718Z,25.63
2018-05-13T08:05:51.121Z,23.43
2018-05-13T08:10:45.678Z,25.37
2018-05-13T08:15:40.421Z,23.90
2018-05-13T08:20:35.696Z,24.63
2018-05-13T08:25:30.865Z,25.10
2018-05-13T08:30:26.074Z,24.87
2018-05-13T08:35:20.503Z,25.10
2018-05-13T08:40:15.611Z,25.03
2018-05-13T08:45:10.750Z,25.47
2018-05-13T08:50:05.143Z,24.40
2018-05-13T08:55:00.276Z,25.80
2018-05-13T08:59:54.808Z,26.37
2018-05-13T09:04:49.150Z,26.37
2018-05-13T09:09:43.524Z,28.20
2018-05-13T09:14:37.883Z,28.97
2018-05-13T09:19:32.264Z,29.10
2018-05-13T09:24:27.406Z,29.83
2018-05-13T09:29:21.780Z,31.47
2018-05-13T09:34:16.248Z,30.87
2018-05-13T09:39:10.627Z,31.40
2018-05-13T09:44:05.000Z,32.93
2018-05-13T09:49:00.126Z,31.13
2018-05-13T09:53:55.584Z,31.40
2018-05-13T09:58:49.968Z,31.73
2018-05-13T10:03:45.308Z,32.27
2018-05-13T10:08:39.808Z,35.30
2018-05-13T10:13:34.179Z,34.83
2018-05-13T10:18:28.546Z,36.90
2018-05-13T10:23:24.076Z,35.67
2018-05-13T10:28:18.603Z,38.53
2018-05-13T10:33:13.004Z,40.17
2018-05-13T10:38:07.541Z,40.77
2018-05-13T10:43:02.656Z,42.20
2018-05-13T10:47:57.783Z,42.10
2018-05-13T10:52:53.057Z,39.60
2018-05-13T10:57:47.493Z,38.40
2018-05-13T11:02:42.092Z,38.47
2018-05-13T11:07:36.486Z,41.67
2018-05-13T11:12:30.870Z,38.30
2018-05-13T11:17:25.655Z,38.87
2018-05-13T11:22:20.086Z,37.37
2018-05-13T11:27:14.458Z,37.17
2018-05-13T11:32:08.586Z,36.47
2018-05-13T11:37:02.948Z,37.03
2018-05-13T11:41:58.070Z,38.23
2018-05-13T11:46:53.430Z,35.80
2018-05-13T11:51:47.800Z,33.87
2018-05-13T11:56:42.175Z,33.47
2018-05-13T12:01:36.544Z,31.27
2018-05-13T12:06:31.033Z,32.73
2018-05-13T12:11:25.886Z,33.33
2018-05-13T12:16:20.264Z,33.53
2018-05-13T12:21:14.621Z,33.37
2018-05-13T12:26:09.579Z,31.60
2018-05-13T12:31:03.958Z,31.93
2018-05-13T12:35:58.324Z,31.90
2018-05-13T12:40:52.818Z,32.27
2018-05-13T12:45:47.194Z,32.03
2018-05-13T12:50:41.566Z,29.67
2018-05-13T12:55:36.924Z,27.73
2018-05-13T13:00:31.266Z,27.97
2018-05-13T13:05:26.213Z,27.27
2018-05-13T13:10:20.332Z,27.10
2018-05-13T13:15:14.772Z,28.37
2018-05-13T13:20:09.448Z,28.47
2018-05-13T13:25:03.927Z,28.27
2018-05-13T13:29:58.373Z,27.90
2018-05-13T13:34:52.833Z,27.37
2018-05-13T13:39:47.210Z,25.47
2018-05-13T13:44:42.110Z,26.00
2018-05-13T13:49:37.013Z,24.00
2018-05-13T13:54:31.382Z,23.77
2018-05-13T13:59:25.755Z,25.03
2018-05-13T14:04:20.385Z,22.90
2018-05-13T14:09:14.734Z,23.10
2018-05-13T14:14:10.019Z,22.50
2018-05-13T14:19:04.392Z,22.10
2018-05-13T14:23:59.860Z,21.47
2018-05-13T14:28:54.228Z,21.73
2018-05-13T14:33:49.374Z,22.70
2018-05-13T14:38:43.730Z,22.00
2018-05-13T14:43:37.861Z,22.57
2018-05-13T14:48:32.222Z,22.03
2018-05-13T14:53:26.604Z,21.80
2018-05-13T14:58:20.964Z,22.63
2018-05-13T15:03:16.317Z,23.70
2018-05-13T15:08:10.682Z,24.43
2018-05-13T15:13:05.806Z,24.90
2018-05-13T15:18:01.164Z,26.07
2018-05-13T15:22:55.547Z,27.47
2018-05-13T15:27:49.912Z,30.03
2018-05-13T15:32:44.666Z,29.57
2018-05-13T15:37:39.109Z,31.07
2018-05-13T15:42:33.463Z,29.10
2018-05-13T15:47:28.008Z,29.17
2018-05-13T15:52:22.421Z,31.60
2018-05-13T15:57:16.810Z,32.47
2018-05-13T16:02:11.191Z,31.60
2018-05-13T16:07:05.822Z,33.93
2018-05-13T16:12:00.280Z,33.13
2018-05-13T16:16:54.991Z,33.40
2018-05-13T16:21:50.154Z,32.20
2018-05-13T16:26:44.573Z,31.47
2018-05-13T16:31:39.856Z,32.50
2018-05-13T16:36:34.579Z,32.77
2018-05-13T16:41:28.947Z,31.23
2018-05-13T16:46:24.096Z,32.97
2018-05-13T16:51:18.630Z,31.63
2018-05-13T16:56:13.166Z,32.63
2018-05-13T17:01:07.527Z,31.87
2018-05-13T17:06:02.131Z,32.50
2018-05-13T17:10:56.898Z,31.77
2018-05-13T17:15:51.250Z,32.37
2018-05-13T17:20:52.880Z,30.20
2018-05-13T17:25:53.543Z,28.77
2018-05-13T17:30:48.766Z,29.97
2018-05-13T17:35:44.571Z,29.93
2018-05-13T17:40:38.776Z,29.70
2018-05-13T17:45:33.374Z,29.30
2018-05-13T17:50:27.743Z,28.80
2018-05-13T17:55:22.111Z,27.27
2018-05-13T18:00:17.573Z,29.40
2018-05-13T18:05:12.627Z,29.00
2018-05-13T18:10:07.996Z,27.73
2018-05-13T18:15:02.583Z,29.47
2018-05-13T18:19:57.392Z,27.33
2018-05-13T18:24:52.874Z,28.97
2018-05-13T18:29:48.373Z,29.60
2018-05-13T18:34:43.111Z,30.33
2018-05-13T18:39:38.064Z,31.60
2018-05-13T18:44:33.633Z,32.23
2018-05-13T18:49:30.213Z,33.50
2018-05-13T18:54:24.929Z,34.00
2018-05-13T18:59:19.716Z,33.70
2018-05-13T19:04:14.384Z,36.07
2018-05-13T19:09:10.450Z,33.03
2018-05-13T19:14:10.642Z,35.07
2018-05-13T19:19:05.120Z,34.57
2018-05-13T19:23:59.652Z,34.50
2018-05-13T19:28:54.043Z,34.83
2018-05-13T19:33:48.651Z,34.43
2018-05-13T19:38:43.412Z,34.40
2018-05-13T19:43:38.172Z,35.30
2018-05-13T19:48:32.782Z,37.13
2018-05-13T19:53:29.035Z,36.83
2018-05-13T19:58:23.561Z,36.50
2018-05-13T20:03:18.402Z,37.13
2018-05-13T20:08:12.904Z,36.90
2018-05-13T20:13:08.253Z,37.17
2018-05-13T20:18:03.705Z,39.10
2018-05-13T20:23:15.146Z,38.47
2018-05-13T20:28:09.559Z,36.77
2018-05-13T20:33:04.119Z,35.47
2018-05-13T20:37:58.590Z,37.00
2018-05-13T20:42:53.884Z,36.77
2018-05-13T20:47:48.384Z,36.80
2018-05-13T20:52:42.945Z,36.80
2018-05-13T20:57:37.942Z,37.80
2018-05-13T21:02:33.462Z,37.00
2018-05-13T21:07:30.520Z,38.07
2018-05-13T21:12:27.316Z,38.00
2018-05-13T21:17:22.044Z,35.23
2018-05-13T21:22:16.950Z,36.00
2018-05-13T21:27:11.668Z,35.47
2018-05-13T21:32:06.755Z,37.07
2018-05-13T21:37:01.296Z,38.13
2018-05-13T21:41:56.341Z,39.87
2018-05-13T21:46:50.916Z,39.57
2018-05-13T21:51:53.127Z,39.83
2018-05-13T21:56:57.510Z,42.63
2018-05-13T22:02:05.464Z,41.77
2018-05-13T22:07:07.424Z,42.67
2018-05-13T22:12:15.114Z,42.73
2018-05-13T22:17:20.180Z,43.53
2018-05-13T22:22:23.983Z,42.83
2018-05-13T22:27:25.969Z,42.20
2018-05-13T22:32:28.737Z,43.13
2018-05-13T22:42:45.641Z,43.47
2018-05-13T22:47:45.485Z,42.77
2018-05-13T22:52:48.233Z,43.70
2018-05-13T22:57:53.596Z,42.80
2018-05-13T23:02:58.524Z,41.40
2018-05-13T23:08:06.256Z,43.13
2018-05-13T23:13:16.085Z,42.53
2018-05-13T23:18:26.224Z,42.33
2018-05-13T23:23:21.338Z,41.47
2018-05-13T23:28:15.707Z,43.20
2018-05-13T23:33:10.083Z,43.97
2018-05-13T23:38:10.955Z,45.70
2018-05-13T23:43:05.339Z,45.67
2018-05-13T23:48:00.715Z,49.07
2018-05-13T23:52:55.196Z,50.03
2018-05-13T23:57:49.568Z,49.27
